createdAt,value
2019-03-21T00:01:26.462Z,26.80
2019-03-21T00:03:56.721Z,30.67
2019-03-21T00:06:23.423Z,24.73
2019-03-21T00:08:50.243Z,23.97
2019-03-21T00:11:54.788Z,23.63
2019-03-21T00:14:25.350Z,25.43
2019-03-21T00:16:52.125Z,24.00
2019-03-21T00:19:19.899Z,23.90
2019-03-21T00:21:46.723Z,24.70
2019-03-21T00:24:13.449Z,25.03
2019-03-21T00:26:40.042Z,25.60
2019-03-21T00:29:07.237Z,24.63
2019-03-21T00:31:34.002Z,23.20
2019-03-21T00:34:00.736Z,25.13
2019-03-21T00:36:27.481Z,29.47
2019-03-21T00:38:54.313Z,23.77
2019-03-21T00:41:21.151Z,23.73
2019-03-21T00:43:47.760Z,27.77
2019-03-21T00:46:14.531Z,23.13
2019-03-21T00:48:41.382Z,23.33
2019-03-21T00:51:08.021Z,25.33
2019-03-21T00:53:34.646Z,27.00
2019-03-21T00:56:01.266Z,34.73
2019-03-21T00:58:28.134Z,30.37
2019-03-21T01:01:03.682Z,25.93
2019-03-21T01:03:30.296Z,27.80
2019-03-21T01:05:56.936Z,28.93
2019-03-21T01:08:23.569Z,28.37
2019-03-21T01:10:51.010Z,26.70
2019-03-21T01:13:17.745Z,26.73
2019-03-21T01:15:44.375Z,27.50
2019-03-21T01:18:11.098Z,26.83
2019-03-21T01:20:37.954Z,28.03
2019-03-21T01:23:04.583Z,27.40
2019-03-21T01:25:34.798Z,26.73
2019-03-21T01:28:01.449Z,29.07
2019-03-21T01:30:28.152Z,29.50
2019-03-21T01:32:54.848Z,29.20
2019-03-21T01:35:22.592Z,27.83
2019-03-21T01:37:49.305Z,26.87
2019-03-21T01:40:31.792Z,27.77
2019-03-21T01:42:58.414Z,28.67
2019-03-21T01:45:25.568Z,28.03
2019-03-21T01:47:55.005Z,38.27
2019-03-21T01:50:23.819Z,36.83
2019-03-21T01:52:50.652Z,33.67
2019-03-21T01:55:17.350Z,33.50
2019-03-21T01:57:43.957Z,33.37
2019-03-21T02:00:14.162Z,30.53
2019-03-21T02:02:40.919Z,31.33
2019-03-21T02:05:09.441Z,33.77
2019-03-21T02:07:36.155Z,41.40
2019-03-21T02:10:06.608Z,39.13
2019-03-21T02:12:33.340Z,52.10
2019-03-21T02:15:00.063Z,32.50
2019-03-21T02:17:26.923Z,35.00
2019-03-21T02:19:53.682Z,30.93
2019-03-21T02:22:20.248Z,34.47
2019-03-21T02:24:47.932Z,31.60
2019-03-21T02:27:14.556Z,31.07
2019-03-21T02:29:41.126Z,32.37
2019-03-21T02:32:08.191Z,33.00
2019-03-21T02:34:34.890Z,31.70
2019-03-21T02:37:01.515Z,31.67
2019-03-21T02:39:28.148Z,32.77
2019-03-21T02:41:54.937Z,30.67
2019-03-21T02:44:21.656Z,33.67
2019-03-21T02:46:48.327Z,33.20
2019-03-21T02:49:15.061Z,32.90
2019-03-21T02:51:41.998Z,32.90
2019-03-21T02:54:08.704Z,34.17
2019-03-21T02:56:35.399Z,33.07
2019-03-21T02:59:02.018Z,32.20
2019-03-21T03:01:28.654Z,33.73
2019-03-21T03:03:55.413Z,31.63
2019-03-21T03:06:22.183Z,33.07
2019-03-21T03:08:49.063Z,35.30
2019-03-21T03:11:19.076Z,35.50
2019-03-21T03:13:47.983Z,33.90
2019-03-21T03:16:14.891Z,31.63
2019-03-21T03:18:42.747Z,31.47
2019-03-21T03:21:09.677Z,33.20
2019-03-21T03:23:36.411Z,36.70
2019-03-21T03:26:03.262Z,40.40
2019-03-21T03:28:36.393Z,33.67
2019-03-21T03:31:03.277Z,32.77
2019-03-21T03:33:30.082Z,33.30
2019-03-21T03:35:56.944Z,33.83
2019-03-21T03:38:23.726Z,34.70
2019-03-21T03:41:02.219Z,33.37
2019-03-21T03:43:28.999Z,33.37
2019-03-21T03:45:55.595Z,32.90
2019-03-21T03:48:22.216Z,35.20
2019-03-21T03:50:48.816Z,32.50
2019-03-21T03:53:15.660Z,32.13
2019-03-21T03:55:42.479Z,31.17
2019-03-21T03:58:12.583Z,31.20
2019-03-21T04:00:39.339Z,34.03
2019-03-21T04:03:06.125Z,36.67
2019-03-21T04:05:32.843Z,34.80
2019-03-21T04:07:59.695Z,34.47
2019-03-21T04:10:37.487Z,34.97
2019-03-21T04:13:04.317Z,37.13
2019-03-21T04:15:30.928Z,38.47
2019-03-21T04:17:57.589Z,35.80
2019-03-21T04:20:48.541Z,34.37
2019-03-21T04:23:21.586Z,35.70
2019-03-21T04:26:00.175Z,35.07
2019-03-21T04:28:26.841Z,34.47
2019-03-21T04:30:53.666Z,34.60
2019-03-21T04:33:22.653Z,35.20
2019-03-21T04:35:48.907Z,35.17
2019-03-21T04:38:16.041Z,34.60
2019-03-21T04:40:42.742Z,34.97
2019-03-21T04:43:09.338Z,34.27
2019-03-21T04:45:35.976Z,34.57
2019-03-21T04:48:04.015Z,37.17
2019-03-21T04:50:38.744Z,35.80
2019-03-21T04:53:05.583Z,36.27
2019-03-21T04:55:32.217Z,37.53
2019-03-21T04:57:58.846Z,33.90
2019-03-21T05:00:44.307Z,36.50
2019-03-21T05:03:18.699Z,34.47
2019-03-21T05:05:45.575Z,37.80
2019-03-21T05:08:12.275Z,40.27
2019-03-21T05:10:39.000Z,40.07
2019-03-21T05:13:05.734Z,40.47
2019-03-21T05:15:41.103Z,39.57
2019-03-21T05:18:14.004Z,38.37
2019-03-21T05:20:40.784Z,39.70
2019-03-21T05:23:07.404Z,40.40
2019-03-21T05:25:34.014Z,39.87
2019-03-21T05:28:01.160Z,40.50
2019-03-21T05:30:44.010Z,42.63
2019-03-21T05:33:11.102Z,42.53
2019-03-21T05:35:37.739Z,43.27
2019-03-21T05:38:04.631Z,39.77
2019-03-21T05:40:31.464Z,39.73
2019-03-21T05:43:01.782Z,40.23
2019-03-21T05:45:29.597Z,39.63
2019-03-21T05:47:56.256Z,41.87
2019-03-21T05:50:22.859Z,40.13
2019-03-21T05:52:49.509Z,41.40
2019-03-21T05:55:16.258Z,42.83
2019-03-21T05:57:43.037Z,46.80
2019-03-21T06:00:31.583Z,38.47
2019-03-21T06:02:58.224Z,39.87
2019-03-21T06:05:26.088Z,43.63
2019-03-21T06:07:56.501Z,42.30
2019-03-21T06:10:25.025Z,42.57
2019-03-21T06:12:51.625Z,42.70
2019-03-21T06:15:27.896Z,43.43
2019-03-21T06:18:19.668Z,43.70
2019-03-21T06:20:52.867Z,42.37
2019-03-21T06:23:32.159Z,46.73
2019-03-21T06:26:06.793Z,47.73
2019-03-21T06:28:33.484Z,54.53
2019-03-21T06:31:00.394Z,45.63
2019-03-21T06:33:27.145Z,47.03
2019-03-21T06:35:53.818Z,47.13
2019-03-21T06:38:20.459Z,47.70
2019-03-21T06:40:47.553Z,45.67
2019-03-21T06:43:14.224Z,44.40
2019-03-21T06:45:47.886Z,48.97
2019-03-21T06:48:09.415Z,46.93
2019-03-21T06:50:36.264Z,49.40
2019-03-21T06:53:03.436Z,48.20
2019-03-21T06:55:30.185Z,51.37
2019-03-21T06:57:56.721Z,49.37
2019-03-21T07:00:25.048Z,50.27
2019-03-21T07:02:51.969Z,46.87
2019-03-21T07:05:20.473Z,52.20
2019-03-21T07:07:47.162Z,53.03
2019-03-21T07:10:13.897Z,49.60
2019-03-21T07:12:41.631Z,53.37
2019-03-21T07:15:09.839Z,50.77
2019-03-21T07:17:36.613Z,51.97
2019-03-21T07:20:05.845Z,51.27
2019-03-21T07:22:32.563Z,54.33
2019-03-21T07:24:59.554Z,47.33
2019-03-21T07:27:26.181Z,52.57
2019-03-21T07:29:52.792Z,49.73
2019-03-21T07:32:19.416Z,48.83
2019-03-21T07:34:48.007Z,50.20
2019-03-21T07:37:15.029Z,49.77
2019-03-21T07:39:41.695Z,54.40
2019-03-21T07:42:08.329Z,49.47
2019-03-21T07:44:34.925Z,55.30
2019-03-21T07:47:12.291Z,48.77
2019-03-21T07:49:32.671Z,49.93
2019-03-21T07:51:58.777Z,50.70
2019-03-21T07:54:26.664Z,51.07
2019-03-21T07:56:53.425Z,54.80
2019-03-21T07:59:20.125Z,47.53
2019-03-21T08:01:46.734Z,49.33
2019-03-21T08:04:13.542Z,52.23
2019-03-21T08:06:40.161Z,50.17
2019-03-21T08:09:06.867Z,51.37
2019-03-21T08:11:33.618Z,49.33
2019-03-21T08:14:00.241Z,47.53
2019-03-21T08:16:26.874Z,48.70
2019-03-21T08:18:53.646Z,47.33
2019-03-21T08:21:20.185Z,50.53
2019-03-21T08:23:46.802Z,48.23
2019-03-21T08:26:13.439Z,42.53
2019-03-21T08:28:40.188Z,39.97
2019-03-21T08:31:10.731Z,35.30
2019-03-21T08:33:37.422Z,36.57
2019-03-21T08:36:04.162Z,37.73
2019-03-21T08:38:30.797Z,31.20
2019-03-21T08:40:57.602Z,33.87
2019-03-21T08:43:24.514Z,30.93
2019-03-21T08:45:51.131Z,30.67
2019-03-21T08:48:17.731Z,28.53
2019-03-21T08:50:44.353Z,28.03
2019-03-21T08:53:11.376Z,30.30
2019-03-21T08:55:38.111Z,29.67
2019-03-21T08:58:04.715Z,43.87
2019-03-21T09:00:34.394Z,28.37
2019-03-21T09:03:01.141Z,27.63
2019-03-21T09:05:27.745Z,26.53
2019-03-21T09:07:54.282Z,26.17
2019-03-21T09:10:21.190Z,25.60
2019-03-21T09:12:47.934Z,27.70
2019-03-21T09:15:14.690Z,25.07
2019-03-21T09:17:41.354Z,25.13
2019-03-21T09:20:08.574Z,28.60
2019-03-21T09:22:35.553Z,25.57
2019-03-21T09:25:06.339Z,26.60
2019-03-21T09:27:32.958Z,25.37
2019-03-21T09:29:59.706Z,24.80
2019-03-21T09:32:26.396Z,28.07
2019-03-21T09:34:53.347Z,27.83
2019-03-21T09:37:20.086Z,27.80
2019-03-21T09:39:46.695Z,26.80
2019-03-21T09:42:13.429Z,27.13
2019-03-21T09:44:40.230Z,27.07
2019-03-21T09:47:06.942Z,26.50
2019-03-21T09:49:33.597Z,30.13
2019-03-21T09:52:00.241Z,27.60
2019-03-21T09:54:27.272Z,28.77
2019-03-21T09:56:54.211Z,30.03
2019-03-21T09:59:20.898Z,30.00
2019-03-21T10:01:48.123Z,30.73
2019-03-21T10:04:14.854Z,31.50
2019-03-21T10:06:41.994Z,31.63
2019-03-21T10:09:08.790Z,30.93
2019-03-21T10:11:35.444Z,28.13
2019-03-21T10:14:02.309Z,28.80
2019-03-21T10:16:29.076Z,30.50
2019-03-21T10:18:55.841Z,31.40
2019-03-21T10:21:22.633Z,28.57
2019-03-21T10:23:49.430Z,32.17
2019-03-21T10:26:16.192Z,30.10
2019-03-21T10:28:43.101Z,29.00
2019-03-21T10:31:09.852Z,34.67
2019-03-21T10:33:36.488Z,26.73
2019-03-21T10:36:03.296Z,34.60
2019-03-21T10:38:30.295Z,31.23
2019-03-21T10:40:57.353Z,33.77
2019-03-21T10:43:37.882Z,34.47
2019-03-21T10:46:04.514Z,31.00
2019-03-21T10:48:31.323Z,27.97
2019-03-21T10:50:58.109Z,31.13
2019-03-21T10:53:24.815Z,29.17
2019-03-21T10:55:51.571Z,31.87
2019-03-21T10:58:20.215Z,29.40
2019-03-21T11:00:47.028Z,29.30
2019-03-21T11:03:13.849Z,29.00
2019-03-21T11:05:40.606Z,26.47
2019-03-21T11:08:07.566Z,26.23
2019-03-21T11:10:34.378Z,27.50
2019-03-21T11:13:01.585Z,25.60
2019-03-21T11:15:28.303Z,24.03
2019-03-21T11:17:55.026Z,24.20
2019-03-21T11:20:31.755Z,30.00
2019-03-21T11:22:58.511Z,23.23
2019-03-21T11:25:25.719Z,25.60
2019-03-21T11:27:52.481Z,22.97
2019-03-21T11:30:27.784Z,24.33
2019-03-21T11:32:54.655Z,25.27
2019-03-21T11:35:21.422Z,24.93
2019-03-21T11:37:48.149Z,24.23
2019-03-21T11:40:14.818Z,20.20
2019-03-21T11:42:41.643Z,19.87
2019-03-21T11:45:08.453Z,21.43
2019-03-21T11:47:41.634Z,18.53
2019-03-21T11:50:06.757Z,18.83
2019-03-21T11:52:33.412Z,21.30
2019-03-21T11:55:00.115Z,22.50
2019-03-21T11:57:26.838Z,22.50
2019-03-21T11:59:53.718Z,21.57
2019-03-21T12:02:27.196Z,25.80
2019-03-21T12:04:49.831Z,26.53
2019-03-21T12:07:16.470Z,26.97
2019-03-21T12:09:43.262Z,28.17
2019-03-21T12:12:09.855Z,25.80
2019-03-21T12:14:36.489Z,27.57
2019-03-21T12:17:03.093Z,24.43
2019-03-21T12:19:29.956Z,24.63
2019-03-21T12:21:56.624Z,22.47
2019-03-21T12:24:23.754Z,26.07
2019-03-21T12:26:55.360Z,25.70
2019-03-21T12:29:22.520Z,25.50
2019-03-21T12:31:49.142Z,25.30
2019-03-21T12:34:16.958Z,26.37
2019-03-21T12:36:44.113Z,24.43
2019-03-21T12:39:12.057Z,27.73
2019-03-21T12:41:38.694Z,26.97
2019-03-21T12:44:05.538Z,24.37
2019-03-21T12:46:32.288Z,27.37
2019-03-21T12:48:58.910Z,27.70
2019-03-21T12:51:25.597Z,26.30
2019-03-21T12:53:52.399Z,25.37
2019-03-21T12:56:19.254Z,27.93
2019-03-21T12:58:45.917Z,28.03
2019-03-21T13:01:12.570Z,24.63
2019-03-21T13:03:39.300Z,23.67
2019-03-21T13:06:06.112Z,25.10
2019-03-21T13:08:34.093Z,26.30
2019-03-21T13:11:01.207Z,25.50
2019-03-21T13:13:27.840Z,24.77
2019-03-21T13:15:54.579Z,23.23
2019-03-21T13:18:21.371Z,25.23
2019-03-21T13:20:48.002Z,21.13
2019-03-21T13:23:14.624Z,25.37
2019-03-21T13:25:41.271Z,21.23
2019-03-21T13:28:08.025Z,21.23
2019-03-21T13:30:35.292Z,20.23
2019-03-21T13:33:02.224Z,22.73
2019-03-21T13:35:32.949Z,21.97
2019-03-21T13:37:57.446Z,19.80
2019-03-21T13:40:24.200Z,21.27
2019-03-21T13:42:50.812Z,54.77
2019-03-21T13:45:17.548Z,21.63
2019-03-21T13:47:44.096Z,24.00
2019-03-21T13:50:10.841Z,17.43
2019-03-21T13:52:37.631Z,17.00
2019-03-21T13:55:06.104Z,16.53
2019-03-21T13:57:32.752Z,17.50
2019-03-21T13:59:59.420Z,15.47
2019-03-21T14:02:26.203Z,16.23
2019-03-21T14:04:53.070Z,14.57
2019-03-21T14:07:19.715Z,15.50
2019-03-21T14:09:46.335Z,19.27
2019-03-21T14:12:12.931Z,18.03
2019-03-21T14:14:39.686Z,17.90
2019-03-21T14:17:06.511Z,18.77
2019-03-21T14:19:33.234Z,15.70
2019-03-21T14:21:59.844Z,14.00
2019-03-21T14:24:26.503Z,14.37
2019-03-21T14:26:53.420Z,14.70
2019-03-21T14:29:20.053Z,17.43
2019-03-21T14:31:46.679Z,21.03
2019-03-21T14:34:13.339Z,14.73
2019-03-21T14:36:39.974Z,13.10
2019-03-21T14:39:09.646Z,17.17
2019-03-21T14:41:36.268Z,15.63
2019-03-21T14:44:03.333Z,14.13
2019-03-21T14:46:30.050Z,14.53
2019-03-21T14:48:56.577Z,14.00
2019-03-21T14:51:23.208Z,12.90
2019-03-21T14:53:49.863Z,14.17
2019-03-21T14:56:16.481Z,13.07
2019-03-21T14:58:43.236Z,14.17
2019-03-21T15:01:10.089Z,16.13
2019-03-21T15:03:36.797Z,18.13
2019-03-21T15:06:03.828Z,22.93
2019-03-21T15:08:30.574Z,16.43
2019-03-21T15:10:57.296Z,18.80
2019-03-21T15:13:24.033Z,21.73
2019-03-21T15:15:50.921Z,18.93
2019-03-21T15:18:17.620Z,19.30
2019-03-21T15:20:44.275Z,19.97
2019-03-21T15:23:11.001Z,20.13
2019-03-21T15:25:37.892Z,19.17
2019-03-21T15:28:04.542Z,21.97
2019-03-21T15:30:31.321Z,23.17
2019-03-21T15:32:58.129Z,24.90
2019-03-21T15:35:24.898Z,24.50
2019-03-21T15:37:51.610Z,25.30
2019-03-21T15:40:18.432Z,25.43
2019-03-21T15:42:45.303Z,23.90
2019-03-21T15:45:22.378Z,23.60
2019-03-21T15:47:43.606Z,23.43
2019-03-21T15:50:16.807Z,24.17
2019-03-21T15:52:43.409Z,24.93
2019-03-21T15:55:10.345Z,24.87
2019-03-21T15:57:37.101Z,26.47
2019-03-21T16:00:07.293Z,23.93
2019-03-21T16:02:34.197Z,24.17
2019-03-21T16:05:00.947Z,23.80
2019-03-21T16:07:27.651Z,25.27
2019-03-21T16:09:54.333Z,25.63
2019-03-21T16:12:21.003Z,24.93
2019-03-21T16:14:49.287Z,24.87
2019-03-21T16:17:16.259Z,23.63
2019-03-21T16:19:43.051Z,22.43
2019-03-21T16:22:09.816Z,26.37
2019-03-21T16:24:36.430Z,26.57
2019-03-21T16:27:03.403Z,24.93
2019-03-21T16:29:30.136Z,23.37
2019-03-21T16:31:56.789Z,25.30
2019-03-21T16:34:23.541Z,23.20
2019-03-21T16:36:50.265Z,24.47
2019-03-21T16:39:17.103Z,23.03
2019-03-21T16:41:43.802Z,24.80
2019-03-21T16:44:10.493Z,24.10
2019-03-21T16:46:37.248Z,23.93
2019-03-21T16:49:04.184Z,24.17
2019-03-21T16:51:30.872Z,24.97
2019-03-21T16:53:57.650Z,25.63
2019-03-21T16:56:24.325Z,24.50
2019-03-21T16:58:52.960Z,23.93
2019-03-21T17:01:19.645Z,25.10
2019-03-21T17:03:46.546Z,25.97
2019-03-21T17:06:13.156Z,27.37
2019-03-21T17:08:39.787Z,24.27
2019-03-21T17:11:06.663Z,27.17
2019-03-21T17:13:33.476Z,24.80
2019-03-21T17:16:00.107Z,25.93
2019-03-21T17:18:26.901Z,26.03
2019-03-21T17:20:53.487Z,26.87
2019-03-21T17:23:21.141Z,26.57
2019-03-21T17:25:47.758Z,26.90
2019-03-21T17:28:14.564Z,26.80
2019-03-21T17:30:41.377Z,26.80
2019-03-21T17:33:08.093Z,27.23
2019-03-21T17:35:34.743Z,25.37
2019-03-21T17:38:01.666Z,25.83
2019-03-21T17:40:28.484Z,29.13
2019-03-21T17:42:55.221Z,26.80
2019-03-21T17:45:22.015Z,27.47
2019-03-21T17:47:48.578Z,27.03
2019-03-21T17:50:16.928Z,30.67
2019-03-21T17:52:43.858Z,31.03
2019-03-21T17:55:11.096Z,28.17
2019-03-21T17:57:38.689Z,29.53
2019-03-21T18:00:25.184Z,28.17
2019-03-21T18:02:51.861Z,28.73
2019-03-21T18:05:18.571Z,30.30
2019-03-21T18:07:45.519Z,30.47
2019-03-21T18:10:32.787Z,31.07
2019-03-21T18:12:59.790Z,34.03
2019-03-21T18:15:26.947Z,33.67
2019-03-21T18:17:54.047Z,35.10
2019-03-21T18:20:20.842Z,31.27
2019-03-21T18:22:47.710Z,28.07
2019-03-21T18:25:14.642Z,31.63
2019-03-21T18:27:43.314Z,29.40
2019-03-21T18:30:10.354Z,31.70
2019-03-21T18:32:37.161Z,27.03
2019-03-21T18:35:05.336Z,30.90
2019-03-21T18:37:32.310Z,32.60
2019-03-21T18:39:59.122Z,32.93
2019-03-21T18:42:25.819Z,31.50
2019-03-21T18:44:52.600Z,28.90
2019-03-21T18:47:19.369Z,31.50
2019-03-21T18:49:46.124Z,33.10
2019-03-21T18:52:12.980Z,32.87
2019-03-21T18:54:39.727Z,30.73
2019-03-21T18:57:06.461Z,31.23
2019-03-21T18:59:33.117Z,34.20
2019-03-21T19:01:59.743Z,33.90
2019-03-21T19:04:26.492Z,33.77
2019-03-21T19:06:53.398Z,41.97
2019-03-21T19:09:20.044Z,45.43
2019-03-21T19:11:48.062Z,46.77
2019-03-21T19:14:14.856Z,51.30
2019-03-21T19:16:41.520Z,54.33
2019-03-21T19:19:08.284Z,54.70
2019-03-21T19:21:35.464Z,61.50
2019-03-21T19:24:02.492Z,60.87
2019-03-21T19:26:30.711Z,60.00
2019-03-21T19:29:00.728Z,61.63
2019-03-21T19:31:29.984Z,62.70
2019-03-21T19:33:56.669Z,53.07
2019-03-21T19:36:23.749Z,52.23
2019-03-21T19:38:50.708Z,52.27
2019-03-21T19:41:17.460Z,52.97
2019-03-21T19:43:44.500Z,49.47
2019-03-21T19:46:11.301Z,48.90
2019-03-21T19:48:49.824Z,48.33
2019-03-21T19:51:07.448Z,45.80
2019-03-21T19:53:34.294Z,44.53
2019-03-21T19:56:08.535Z,39.80
2019-03-21T19:58:29.678Z,37.70
2019-03-21T20:00:57.047Z,37.80
2019-03-21T20:03:24.683Z,38.73
2019-03-21T20:06:00.176Z,38.57
2019-03-21T20:08:20.787Z,36.77
2019-03-21T20:10:48.325Z,37.20
2019-03-21T20:13:15.103Z,38.77
2019-03-21T20:15:42.206Z,39.27
2019-03-21T20:18:09.253Z,37.03
2019-03-21T20:20:36.198Z,41.93
2019-03-21T20:23:03.286Z,38.37
2019-03-21T20:25:41.973Z,38.10
2019-03-21T20:28:00.588Z,37.07
2019-03-21T20:30:27.948Z,37.07
2019-03-21T20:32:56.086Z,39.10
2019-03-21T20:35:22.780Z,37.13
2019-03-21T20:37:50.070Z,38.73
2019-03-21T20:40:18.274Z,40.00
2019-03-21T20:42:46.553Z,39.33
2019-03-21T20:45:16.132Z,42.63
2019-03-21T20:47:43.838Z,39.33
2019-03-21T20:50:11.350Z,39.13
2019-03-21T20:52:38.276Z,39.63
2019-03-21T20:55:06.071Z,40.80
2019-03-21T20:57:32.808Z,42.77
2019-03-21T20:59:59.466Z,40.63
2019-03-21T21:02:26.290Z,40.07
2019-03-21T21:04:53.262Z,40.90
2019-03-21T21:07:20.095Z,41.33
2019-03-21T21:09:46.801Z,40.87
2019-03-21T21:12:13.599Z,45.80
2019-03-21T21:14:40.543Z,44.33
2019-03-21T21:17:07.206Z,44.47
2019-03-21T21:19:33.893Z,47.40
2019-03-21T21:22:00.838Z,44.37
2019-03-21T21:24:29.462Z,45.73
2019-03-21T21:26:56.903Z,45.37
2019-03-21T21:29:23.618Z,48.03
2019-03-21T21:31:50.870Z,48.40
2019-03-21T21:34:17.910Z,50.10
2019-03-21T21:36:44.632Z,49.13
2019-03-21T21:39:11.426Z,52.43
2019-03-21T21:41:38.292Z,52.53
2019-03-21T21:44:05.110Z,53.63
2019-03-21T21:46:31.989Z,53.57
2019-03-21T21:49:01.526Z,58.33
2019-03-21T21:51:29.316Z,56.07
2019-03-21T21:53:55.988Z,56.40
2019-03-21T21:56:22.733Z,53.90
2019-03-21T21:58:49.992Z,57.80
2019-03-21T22:01:16.714Z,58.87
2019-03-21T22:03:43.385Z,56.93
2019-03-21T22:06:10.043Z,57.27
2019-03-21T22:08:38.108Z,60.90
2019-03-21T22:11:06.786Z,57.30
2019-03-21T22:13:34.058Z,58.77
2019-03-21T22:16:00.676Z,61.00
2019-03-21T22:18:27.216Z,59.97
2019-03-21T22:20:54.206Z,64.90
2019-03-21T22:23:21.010Z,60.50
2019-03-21T22:25:47.792Z,63.40
2019-03-21T22:28:14.446Z,61.33
2019-03-21T22:30:41.532Z,63.07
2019-03-21T22:33:08.300Z,65.10
2019-03-21T22:35:34.951Z,66.70
2019-03-21T22:38:02.049Z,66.83
2019-03-21T22:40:28.760Z,65.13
2019-03-21T22:42:55.838Z,70.17
2019-03-21T22:45:22.558Z,67.87
2019-03-21T22:47:50.783Z,70.67
2019-03-21T22:50:18.141Z,70.93
2019-03-21T22:52:45.352Z,64.03
2019-03-21T22:55:14.550Z,67.33
2019-03-21T22:57:41.366Z,69.00
2019-03-21T23:00:14.856Z,70.53
2019-03-21T23:02:43.967Z,71.63
2019-03-21T23:05:11.239Z,65.90
2019-03-21T23:07:38.074Z,66.80
2019-03-21T23:10:08.489Z,67.53
2019-03-21T23:12:36.734Z,68.70
2019-03-21T23:15:06.704Z,67.27
2019-03-21T23:17:35.421Z,67.43
2019-03-21T23:20:04.643Z,72.13
2019-03-21T23:22:31.410Z,72.40
2019-03-21T23:24:58.232Z,69.03
2019-03-21T23:27:24.974Z,66.73
2019-03-21T23:29:51.618Z,72.10
2019-03-21T23:32:18.480Z,71.50
2019-03-21T23:34:45.228Z,74.70
2019-03-21T23:37:12.065Z,71.03
2019-03-21T23:39:38.705Z,74.70
2019-03-21T23:42:05.432Z,75.00
2019-03-21T23:44:32.205Z,72.93
2019-03-21T23:46:58.926Z,73.87
2019-03-21T23:49:26.800Z,75.47
2019-03-21T23:51:53.661Z,76.57
2019-03-21T23:54:20.203Z,75.87
2019-03-21T23:56:46.886Z,73.63
2019-03-21T23:59:13.630Z,75.17
